createdAt,value
2019-03-26T00:05:23.670Z,8.93
2019-03-26T00:09:35.110Z,8.10
2019-03-26T00:13:47.373Z,8.40
2019-03-26T00:17:58.934Z,8.60
2019-03-26T00:22:11.175Z,8.40
2019-03-26T00:26:22.225Z,7.57
2019-03-26T00:30:34.700Z,7.80
2019-03-26T00:34:46.539Z,7.70
2019-03-26T00:39:09.415Z,7.77
2019-03-26T00:43:20.663Z,8.00
2019-03-26T00:47:35.874Z,6.97
2019-03-26T00:51:48.534Z,7.57
2019-03-26T00:55:59.774Z,8.60
2019-03-26T01:00:13.490Z,7.40
2019-03-26T01:04:32.588Z,6.50
2019-03-26T01:08:40.428Z,7.50
2019-03-26T01:12:52.960Z,7.70
2019-03-26T01:17:04.506Z,7.40
2019-03-26T01:21:17.748Z,6.37
2019-03-26T01:25:29.551Z,7.30
2019-03-26T01:29:40.979Z,7.97
2019-03-26T01:33:56.246Z,7.00
2019-03-26T01:38:07.564Z,5.70
2019-03-26T01:42:19.571Z,5.70
2019-03-26T01:46:31.580Z,5.90
2019-03-26T01:50:43.482Z,4.63
2019-03-26T01:54:57.462Z,4.80
2019-03-26T01:59:10.371Z,4.27
2019-03-26T02:03:23.440Z,4.20
2019-03-26T02:07:38.847Z,3.40
2019-03-26T02:11:53.138Z,3.20
2019-03-26T02:16:06.722Z,3.37
2019-03-26T02:20:21.198Z,3.50
2019-03-26T02:24:34.546Z,3.10
2019-03-26T02:28:47.553Z,2.97
2019-03-26T02:32:59.989Z,3.13
2019-03-26T02:37:11.632Z,2.83
2019-03-26T02:41:24.491Z,2.93
2019-03-26T02:45:37.440Z,2.70
2019-03-26T02:49:50.871Z,2.10
2019-03-26T02:54:02.698Z,2.77
2019-03-26T02:58:15.201Z,1.90
2019-03-26T03:02:29.199Z,2.50
2019-03-26T03:06:40.504Z,2.33
2019-03-26T03:10:52.076Z,2.20
2019-03-26T03:15:03.830Z,2.40
2019-03-26T03:19:15.996Z,2.20
2019-03-26T03:23:27.712Z,2.53
2019-03-26T03:27:39.361Z,2.10
2019-03-26T03:31:50.786Z,2.43
2019-03-26T03:36:02.193Z,1.73
2019-03-26T03:40:14.589Z,2.67
2019-03-26T03:44:26.056Z,2.10
2019-03-26T03:48:38.862Z,2.17
2019-03-26T03:52:50.690Z,1.77
2019-03-26T03:57:05.123Z,2.23
2019-03-26T04:01:17.436Z,2.13
2019-03-26T04:05:28.946Z,1.80
2019-03-26T04:09:41.228Z,2.07
2019-03-26T04:14:01.560Z,1.93
2019-03-26T04:18:12.928Z,2.07
2019-03-26T04:22:25.966Z,1.60
2019-03-26T04:26:37.898Z,2.40
2019-03-26T04:30:49.407Z,1.87
2019-03-26T04:35:00.821Z,1.70
2019-03-26T04:39:12.682Z,2.03
2019-03-26T04:43:24.264Z,1.70
2019-03-26T04:47:44.141Z,2.20
2019-03-26T04:51:55.941Z,2.00
2019-03-26T04:56:06.948Z,2.27
2019-03-26T05:00:18.988Z,2.13
2019-03-26T05:04:30.541Z,2.47
2019-03-26T05:08:41.899Z,2.90
2019-03-26T05:12:53.004Z,2.50
2019-03-26T05:17:04.419Z,2.63
2019-03-26T05:21:15.574Z,3.00
2019-03-26T05:25:27.100Z,3.03
2019-03-26T05:29:38.541Z,3.17
2019-03-26T05:33:49.999Z,2.80
2019-03-26T05:38:01.174Z,2.70
2019-03-26T05:42:12.707Z,3.77
2019-03-26T05:46:23.970Z,3.47
2019-03-26T05:50:36.090Z,3.90
2019-03-26T05:54:46.980Z,3.43
2019-03-26T05:58:57.479Z,3.57
2019-03-26T06:03:09.250Z,3.10
2019-03-26T06:07:22.105Z,3.63
2019-03-26T06:11:33.391Z,3.33
2019-03-26T06:15:45.356Z,3.47
2019-03-26T06:19:58.392Z,4.00
2019-03-26T06:24:10.472Z,3.40
2019-03-26T06:28:22.369Z,4.20
2019-03-26T06:32:33.803Z,3.83
2019-03-26T06:36:45.449Z,4.50
2019-03-26T06:40:56.833Z,3.80
2019-03-26T06:45:08.490Z,3.27
2019-03-26T06:49:19.585Z,4.00
2019-03-26T06:53:32.054Z,4.60
2019-03-26T06:57:44.939Z,3.93
2019-03-26T07:01:56.122Z,3.87
2019-03-26T07:06:08.062Z,4.20
2019-03-26T07:10:23.077Z,3.60
2019-03-26T07:14:34.478Z,4.40
2019-03-26T07:18:45.262Z,4.03
2019-03-26T07:22:57.059Z,4.00
2019-03-26T07:27:08.583Z,3.80
2019-03-26T07:31:20.189Z,3.93
2019-03-26T07:35:31.365Z,4.03
2019-03-26T07:39:43.000Z,3.93
2019-03-26T07:43:53.999Z,4.30
2019-03-26T07:48:06.262Z,3.83
2019-03-26T07:52:17.634Z,4.37
2019-03-26T07:56:30.044Z,5.10
2019-03-26T08:00:42.723Z,4.43
2019-03-26T08:04:54.860Z,4.40
2019-03-26T08:09:06.655Z,4.50
2019-03-26T08:13:18.116Z,4.73
2019-03-26T08:17:29.109Z,4.20
2019-03-26T08:21:41.324Z,4.27
2019-03-26T08:25:52.819Z,4.60
2019-03-26T08:30:05.695Z,3.90
2019-03-26T08:34:17.336Z,5.10
2019-03-26T08:38:28.998Z,4.70
2019-03-26T08:42:40.296Z,6.40
2019-03-26T08:46:51.246Z,5.93
2019-03-26T08:51:02.860Z,5.23
2019-03-26T08:55:16.054Z,5.87
2019-03-26T08:59:26.735Z,5.73
2019-03-26T09:03:38.003Z,5.00
2019-03-26T09:07:49.373Z,5.10
2019-03-26T09:12:02.297Z,6.07
2019-03-26T09:16:13.423Z,6.77
2019-03-26T09:20:26.064Z,7.10
2019-03-26T09:24:37.200Z,7.40
2019-03-26T09:28:48.334Z,6.80
2019-03-26T09:32:58.833Z,6.50
2019-03-26T09:37:10.038Z,7.20
2019-03-26T09:41:21.802Z,6.80
2019-03-26T09:45:33.477Z,6.70
2019-03-26T09:49:44.695Z,6.20
2019-03-26T09:53:56.042Z,7.10
2019-03-26T09:58:07.806Z,6.73
2019-03-26T10:02:19.658Z,7.20
2019-03-26T10:06:32.056Z,6.97
2019-03-26T10:10:44.127Z,6.33
2019-03-26T10:14:56.236Z,6.20
2019-03-26T10:19:07.880Z,6.27
2019-03-26T10:23:22.901Z,7.40
2019-03-26T10:27:35.080Z,6.63
2019-03-26T10:31:47.295Z,6.93
2019-03-26T10:35:59.607Z,6.57
2019-03-26T10:40:11.702Z,7.80
2019-03-26T10:44:22.863Z,6.60
2019-03-26T10:48:35.963Z,6.30
2019-03-26T10:52:48.311Z,7.50
2019-03-26T10:57:00.954Z,7.50
2019-03-26T11:01:13.779Z,6.90
2019-03-26T11:05:26.798Z,7.20
2019-03-26T11:09:39.168Z,7.07
2019-03-26T11:13:51.809Z,7.20
2019-03-26T11:18:03.320Z,8.30
2019-03-26T11:22:18.031Z,7.87
2019-03-26T11:26:30.284Z,7.40
2019-03-26T11:30:42.094Z,7.20
2019-03-26T11:34:53.483Z,7.93
2019-03-26T11:39:06.261Z,7.47
2019-03-26T11:43:17.928Z,6.30
2019-03-26T11:47:37.965Z,7.03
2019-03-26T11:51:50.104Z,6.13
2019-03-26T11:56:01.551Z,6.33
2019-03-26T12:00:18.410Z,8.20
2019-03-26T12:04:31.546Z,7.53
2019-03-26T12:08:43.127Z,7.37
2019-03-26T12:12:56.374Z,7.40
2019-03-26T12:17:08.975Z,6.83
2019-03-26T12:21:20.893Z,6.70
2019-03-26T12:25:32.217Z,6.27
2019-03-26T12:29:44.239Z,7.40
2019-03-26T12:33:55.523Z,7.73
2019-03-26T12:38:19.156Z,7.20
2019-03-26T12:42:40.341Z,7.77
2019-03-26T12:46:51.873Z,7.23
2019-03-26T12:51:04.485Z,8.00
2019-03-26T12:55:16.246Z,8.37
2019-03-26T12:59:27.492Z,7.63
2019-03-26T13:03:38.835Z,7.27
2019-03-26T13:07:50.446Z,7.40
2019-03-26T13:12:02.071Z,7.30
2019-03-26T13:16:13.883Z,7.20
2019-03-26T13:20:31.623Z,7.30
2019-03-26T13:24:43.591Z,7.20
2019-03-26T13:28:54.683Z,6.80
2019-03-26T13:33:07.247Z,6.83
2019-03-26T13:37:21.560Z,8.77
2019-03-26T13:41:32.306Z,7.57
2019-03-26T13:45:43.714Z,7.00
2019-03-26T13:49:56.633Z,6.60
2019-03-26T13:54:09.060Z,6.60
2019-03-26T13:58:20.630Z,7.03
2019-03-26T14:02:32.420Z,7.40
2019-03-26T14:06:44.924Z,7.30
2019-03-26T14:10:56.660Z,6.60
2019-03-26T14:15:09.388Z,6.83
2019-03-26T14:19:20.580Z,7.33
2019-03-26T14:23:32.693Z,6.90
2019-03-26T14:27:44.801Z,6.40
2019-03-26T14:31:57.861Z,7.47
2019-03-26T14:36:10.430Z,6.37
2019-03-26T14:40:22.369Z,6.13
2019-03-26T14:44:35.938Z,7.13
2019-03-26T14:48:48.356Z,7.50
2019-03-26T14:52:59.804Z,7.17
2019-03-26T14:57:12.595Z,7.90
2019-03-26T15:01:24.561Z,6.27
2019-03-26T15:05:36.443Z,7.30
2019-03-26T15:09:48.231Z,10.60
2019-03-26T15:13:59.657Z,15.90
2019-03-26T15:18:11.835Z,18.90
2019-03-26T15:22:23.935Z,20.00
2019-03-26T15:26:35.802Z,19.70
2019-03-26T15:30:47.140Z,23.07
2019-03-26T15:34:59.479Z,20.83
2019-03-26T15:39:12.805Z,22.10
2019-03-26T15:43:24.015Z,22.07
2019-03-26T15:47:40.533Z,20.03
2019-03-26T15:51:52.358Z,21.70
2019-03-26T15:56:03.966Z,21.00
2019-03-26T16:00:17.297Z,20.87
2019-03-26T16:04:28.755Z,21.03
2019-03-26T16:08:40.328Z,20.50
2019-03-26T16:12:51.968Z,19.90
2019-03-26T16:17:04.436Z,21.00
2019-03-26T16:21:16.495Z,21.13
2019-03-26T16:25:29.922Z,21.20
2019-03-26T16:29:41.788Z,18.87
2019-03-26T16:33:53.231Z,18.10
2019-03-26T16:38:04.147Z,22.37
2019-03-26T16:42:16.201Z,21.33
2019-03-26T16:46:27.213Z,19.53
2019-03-26T16:50:38.558Z,19.30
2019-03-26T16:54:50.923Z,18.13
2019-03-26T16:59:05.739Z,20.50
2019-03-26T17:03:30.400Z,18.00
2019-03-26T17:07:30.527Z,19.30
2019-03-26T17:11:41.777Z,17.67
2019-03-26T17:16:05.705Z,17.50
2019-03-26T17:20:15.782Z,14.70
2019-03-26T17:24:28.337Z,16.70
2019-03-26T17:28:40.913Z,17.57
2019-03-26T17:32:52.887Z,17.43
2019-03-26T17:37:04.443Z,17.00
2019-03-26T17:41:16.443Z,17.37
2019-03-26T17:45:29.653Z,15.03
2019-03-26T17:49:41.289Z,16.20
2019-03-26T17:53:53.186Z,17.30
2019-03-26T17:58:04.519Z,17.27
2019-03-26T18:02:15.501Z,16.77
2019-03-26T18:06:27.628Z,15.90
2019-03-26T18:10:38.728Z,15.60
2019-03-26T18:14:50.526Z,15.00
2019-03-26T18:19:01.777Z,14.73
2019-03-26T18:23:13.797Z,15.90
2019-03-26T18:27:26.284Z,15.63
2019-03-26T18:31:38.014Z,13.40
2019-03-26T18:35:49.170Z,13.73
2019-03-26T18:40:01.584Z,14.47
2019-03-26T18:44:13.196Z,12.80
2019-03-26T18:48:25.436Z,13.20
2019-03-26T18:52:38.818Z,12.83
2019-03-26T18:56:49.977Z,12.00
2019-03-26T19:01:01.102Z,13.93
2019-03-26T19:05:13.931Z,13.50
2019-03-26T19:09:25.836Z,14.03
2019-03-26T19:13:37.364Z,13.13
2019-03-26T19:17:48.615Z,14.43
2019-03-26T19:22:00.114Z,14.00
2019-03-26T19:26:11.234Z,12.50
2019-03-26T19:30:23.344Z,11.90
2019-03-26T19:34:35.060Z,12.00
2019-03-26T19:38:56.236Z,10.93
2019-03-26T19:43:11.179Z,11.30
2019-03-26T19:47:22.019Z,12.17
2019-03-26T19:51:33.982Z,12.10
2019-03-26T19:55:44.782Z,12.23
2019-03-26T19:59:56.816Z,10.60
2019-03-26T20:04:08.357Z,11.33
2019-03-26T20:08:20.759Z,11.87
2019-03-26T20:12:32.015Z,10.90
2019-03-26T20:16:43.522Z,10.57
2019-03-26T20:20:54.614Z,9.80
2019-03-26T20:25:05.667Z,10.10
2019-03-26T20:29:17.798Z,10.53
2019-03-26T20:33:29.185Z,9.63
2019-03-26T20:37:41.405Z,10.27
2019-03-26T20:41:53.547Z,11.43
2019-03-26T20:46:04.242Z,10.47
2019-03-26T20:50:16.327Z,10.43
2019-03-26T20:54:28.169Z,10.83
2019-03-26T20:58:40.566Z,10.63
2019-03-26T21:02:52.559Z,9.93
2019-03-26T21:07:05.719Z,9.93
2019-03-26T21:11:16.792Z,9.87
2019-03-26T21:15:29.066Z,9.70
2019-03-26T21:19:41.491Z,9.57
2019-03-26T21:23:53.459Z,9.73
2019-03-26T21:28:04.643Z,9.27
2019-03-26T21:32:16.999Z,9.33
2019-03-26T21:36:28.570Z,9.43
2019-03-26T21:40:40.515Z,8.97
2019-03-26T21:44:52.160Z,9.73
2019-03-26T21:49:03.397Z,10.30
2019-03-26T21:53:16.435Z,8.97
2019-03-26T21:57:29.106Z,10.13
2019-03-26T22:01:53.345Z,9.93
2019-03-26T22:06:02.893Z,8.90
2019-03-26T22:10:21.882Z,8.90
2019-03-26T22:20:13.947Z,8.63
2019-03-26T22:28:24.477Z,9.33
2019-03-26T22:37:17.368Z,10.37
2019-03-26T22:41:32.346Z,9.30
2019-03-26T22:55:02.634Z,6.60
2019-03-26T22:59:40.342Z,6.00
2019-03-26T23:03:37.002Z,6.33
2019-03-26T23:12:37.272Z,6.17
2019-03-26T23:16:45.883Z,5.43
2019-03-26T23:21:39.461Z,5.07
2019-03-26T23:25:35.213Z,7.80
2019-03-26T23:29:51.695Z,7.30
2019-03-26T23:34:10.121Z,7.30
2019-03-26T23:47:40.890Z,7.80
2019-03-26T23:56:41.296Z,179.57
